Hovedside
METAR-TAF:

METAR-TAF

Lufthavner :

Curaçao internasjonale lufthavn

Curaçao, De nederlandske Antillene

breddegrad: 12-12N, lengdegrad: 068-58W, høyde over havet: 9 m

Gjeldene værobservasjon

Denne rapporten ble laget for 50 minutter siden, klokken 10:00 UTC
Vind 12 kt fra Øst-sørøst
Temperatur 27°C
Luftfuktighet 84%
Trykk 1013 hPa
Sikt 10 km eller mer

METAR: TNCC 201000Z AUTO 11012KT 9999 NCD 27/24 Q1013

Tid: 06:50 (10:50 UTC)

Varsel

Varsel gyldig fra 20. klokken 06 UTC til 21. klokken 06 UTC
Vind 12 kt fra Øst
Sikt 10 km eller mer
Spredte skyer i en høyde av 1800 ft
Sannsynlighet 30% :
Midlertidig
fra 20. klokken 06 UTC til 20. klokken 12 UTC
Brutte skyer i en høyde av 1400 ft

TAF: TNCC 2006/2106 10012KT 9999 SCT018 PROB30 TEMPO 2006/2012 BKN014

Værobservasjoner og værvarsel for over 4000 flyplasser (METAR- og TAF-rapporter).

Tilgjengelige stasjoner er representert av de røde og gule prikkene på kartet.

Hold musepekeren over prikken for å se navnet på stasjonen.

Klikk så for å se værobservasjoner og -varsler.

For å forandre kartet kan du klikke på den grønne knappen med svart kryss for å zoome inn, på den grønne knappen med strek for å zoome ut, eller på de grønne pilene for å se tilstøtende kart.


METAR-TAF: